Time;durP1;ratioP1;P1;durP2;ratioP2;P2;SDS_P1;SDS_P2;PMS_P1;PMS_P2;Temp;Humidity;BMP_temperature;BMP_pressure;BME280_temperature;BME280_humidity;BME280_pressure;Samples;Min_cycle;Max_cycle;Signal;HPM_P1;HPM_P2
2024/01/03 00:01:37;;;;;;;22.45;2.03;;;11.50;1.00;;;;;;5020788;28;20280;-79
2024/01/03 00:04:03;;;;;;;17.85;1.35;;;11.50;1.00;;;;;;5037973;28;20177;-79
2024/01/03 00:06:35;;;;;;;19.10;1.60;;;11.50;1.00;;;;;;5037942;28;20181;-80
2024/01/03 00:09:02;;;;;;;27.00;1.98;;;11.50;1.00;;;;;;5037806;28;20147;-79
2024/01/03 00:11:30;;;;;;;19.33;2.00;;;11.50;1.00;;;;;;5037264;28;20165;-79
2024/01/03 00:14:07;;;;;;;18.40;2.00;;;11.60;1.00;;;;;;5037541;28;20192;-81
2024/01/03 00:16:35;;;;;;;40.50;6.57;;;11.60;1.00;;;;;;5037684;28;20601;-80
2024/01/03 00:19:03;;;;;;;18.75;2.10;;;11.60;1.00;;;;;;5037534;28;20208;-79
2024/01/03 00:21:29;;;;;;;17.65;1.33;;;11.60;1.00;;;;;;5037117;28;20188;-79
2024/01/03 00:23:58;;;;;;;24.05;1.90;;;11.50;1.00;;;;;;5037494;28;20245;-78
2024/01/03 00:26:25;;;;;;;19.10;1.42;;;11.50;1.00;;;;;;5037455;28;20246;-80
2024/01/03 00:28:51;;;;;;;18.90;1.73;;;11.50;1.00;;;;;;5019677;28;20225;-80
2024/01/03 00:31:42;;;;;;;21.58;1.67;;;11.50;1.00;;;;;;5037152;28;20212;-78
2024/01/03 00:34:23;;;;;;;17.05;1.10;;;11.40;1.00;;;;;;5019446;28;20165;-79
2024/01/03 00:36:55;;;;;;;17.80;1.45;;;11.40;1.00;;;;;;5019483;28;20186;-80
2024/01/03 00:39:31;;;;;;;23.80;1.77;;;11.40;1.00;;;;;;5037452;28;20597;-81
2024/01/03 00:41:57;;;;;;;17.95;1.20;;;11.40;1.00;;;;;;5037295;28;20177;-80
2024/01/03 00:44:23;;;;;;;20.02;1.88;;;11.40;1.00;;;;;;5019125;28;20220;-79
2024/01/03 00:46:49;;;;;;;16.20;1.30;;;11.40;1.00;;;;;;5037020;28;20178;-80
2024/01/03 00:49:15;;;;;;;17.83;1.50;;;11.30;1.00;;;;;;5036829;28;20801;-80
2024/01/03 00:51:47;;;;;;;26.60;2.20;;;11.30;1.00;;;;;;5037175;28;20174;-79
2024/01/03 00:54:14;;;;;;;18.23;1.40;;;11.30;1.00;;;;;;5037620;28;20561;-80
2024/01/03 00:56:43;;;;;;;16.80;1.02;;;11.30;1.00;;;;;;5036546;28;20276;-81
2024/01/03 00:59:09;;;;;;;16.60;1.02;;;11.30;1.00;;;;;;5037242;28;20202;-80
2024/01/03 01:01:35;;;;;;;16.13;1.10;;;11.30;1.00;;;;;;5037132;28;20701;-81
2024/01/03 01:04:01;;;;;;;33.40;2.03;;;11.30;1.00;;;;;;5037121;28;20257;-80
2024/01/03 01:06:27;;;;;;;16.50;1.40;;;11.30;1.00;;;;;;5037434;28;20182;-81
2024/01/03 01:08:52;;;;;;;16.73;1.00;;;11.40;1.00;;;;;;5036974;28;20411;-80
2024/01/03 01:11:18;;;;;;;16.93;1.30;;;11.40;1.00;;;;;;5037349;28;20170;-79
2024/01/03 01:13:43;;;;;;;17.60;1.10;;;11.40;1.00;;;;;;5037227;28;20185;-80
2024/01/03 01:16:09;;;;;;;19.37;1.10;;;11.40;1.00;;;;;;5036280;28;20205;-80
2024/01/03 01:18:38;;;;;;;17.23;1.47;;;11.40;1.00;;;;;;5018866;28;20228;-79
2024/01/03 01:21:04;;;;;;;15.68;1.13;;;11.40;1.00;;;;;;5036204;28;20633;-79
2024/01/03 01:23:30;;;;;;;17.10;0.90;;;11.40;1.00;;;;;;5036446;28;20246;-78
2024/01/03 01:25:55;;;;;;;18.23;1.10;;;11.30;1.00;;;;;;5035923;28;20515;-80
2024/01/03 01:28:21;;;;;;;16.83;1.20;;;11.20;1.00;;;;;;5018409;28;20173;-79
2024/01/03 01:30:47;;;;;;;17.27;0.97;;;11.20;1.00;;;;;;5018365;28;20180;-79
2024/01/03 01:33:12;;;;;;;18.10;1.93;;;11.20;2.00;;;;;;5036269;28;20200;-80
2024/01/03 01:35:38;;;;;;;18.30;1.00;;;11.10;5.50;;;;;;5035938;28;20228;-79
2024/01/03 01:38:06;;;;;;;16.50;1.10;;;11.10;7.60;;;;;;5035842;28;20178;-80
2024/01/03 01:40:32;;;;;;;26.33;1.50;;;11.10;13.60;;;;;;5036146;28;20193;-80
2024/01/03 01:42:58;;;;;;;18.98;1.25;;;11.00;20.80;;;;;;5035921;28;20162;-80
2024/01/03 01:45:23;;;;;;;16.13;0.90;;;11.00;25.00;;;;;;5035730;28;20193;-79
2024/01/03 01:47:51;;;;;;;16.90;1.13;;;11.00;32.70;;;;;;5035656;28;20401;-80
2024/01/03 01:50:18;;;;;;;15.50;1.00;;;11.00;38.50;;;;;;5035596;28;20635;-81
2024/01/03 01:52:44;;;;;;;16.73;0.88;;;11.00;44.90;;;;;;5035617;28;20178;-79
2024/01/03 01:55:11;;;;;;;15.95;1.05;;;11.00;49.90;;;;;;5035839;28;20168;-80
2024/01/03 01:57:39;;;;;;;16.13;1.00;;;11.00;55.10;;;;;;5017803;28;20190;-80
2024/01/03 02:00:07;;;;;;;17.33;1.20;;;11.00;53.20;;;;;;5017942;28;20158;-80
2024/01/03 02:02:35;;;;;;;20.40;1.58;;;10.90;55.10;;;;;;5035251;28;20728;-80
2024/01/03 02:05:01;;;;;;;17.80;1.15;;;10.90;56.60;;;;;;5035260;28;20209;-80
2024/01/03 02:07:27;;;;;;;20.90;1.20;;;10.90;54.50;;;;;;5034963;28;20186;-79
2024/01/03 02:09:53;;;;;;;18.33;1.73;;;10.90;51.30;;;;;;5035323;28;20404;-80
2024/01/03 02:12:28;;;;;;;16.30;0.90;;;10.90;52.20;;;;;;5017385;28;20478;-82
2024/01/03 02:14:54;;;;;;;20.13;1.98;;;10.90;49.70;;;;;;5035800;28;20771;-79
2024/01/03 02:17:21;;;;;;;19.13;1.40;;;10.80;50.60;;;;;;5034957;28;20186;-79
2024/01/03 02:19:46;;;;;;;19.70;1.60;;;10.80;54.00;;;;;;5036215;28;20166;-80
2024/01/03 02:22:12;;;;;;;17.30;1.30;;;10.80;53.30;;;;;;5035518;28;20269;-80
2024/01/03 02:24:38;;;;;;;16.17;1.07;;;10.80;50.30;;;;;;5035166;28;20440;-81
2024/01/03 02:27:03;;;;;;;19.43;1.60;;;10.80;54.70;;;;;;5017136;28;20190;-79
2024/01/03 02:29:29;;;;;;;17.67;1.30;;;10.80;51.70;;;;;;5034962;28;20166;-81
2024/01/03 02:31:55;;;;;;;18.87;1.70;;;10.80;52.20;;;;;;5035510;28;20170;-79
2024/01/03 02:34:20;;;;;;;18.93;1.60;;;10.80;52.20;;;;;;5035108;28;20658;-79
2024/01/03 02:36:51;;;;;;;15.27;0.80;;;10.80;46.40;;;;;;5034918;28;20236;-79
2024/01/03 02:39:17;;;;;;;19.27;1.88;;;10.80;52.90;;;;;;5035314;28;20674;-79
2024/01/03 02:41:43;;;;;;;18.53;1.27;;;10.80;54.50;;;;;;5035279;28;20193;-79
2024/01/03 02:44:10;;;;;;;16.80;1.27;;;10.80;51.60;;;;;;5034966;28;20216;-79
2024/01/03 02:46:36;;;;;;;16.63;1.30;;;10.80;54.90;;;;;;5034699;28;20243;-78
2024/01/03 02:49:01;;;;;;;19.00;1.73;;;10.80;49.00;;;;;;5034917;28;20619;-80
2024/01/03 02:51:27;;;;;;;17.97;1.50;;;10.80;48.40;;;;;;5016934;28;20173;-81
2024/01/03 02:53:52;;;;;;;17.90;1.37;;;10.80;46.80;;;;;;5034283;28;20194;-79
2024/01/03 02:56:18;;;;;;;18.80;1.13;;;10.90;35.80;;;;;;5016846;28;20673;-80
2024/01/03 02:58:44;;;;;;;19.63;1.67;;;10.90;35.90;;;;;;5034604;28;20166;-80
2024/01/03 03:01:09;;;;;;;15.73;0.93;;;10.90;27.70;;;;;;5034572;28;20193;-79
2024/01/03 03:03:35;;;;;;;18.97;1.40;;;10.90;19.80;;;;;;5034641;28;20196;-80
2024/01/03 03:06:02;;;;;;;16.80;1.00;;;10.90;18.50;;;;;;5034544;28;20199;-78
2024/01/03 03:08:28;;;;;;;16.35;0.98;;;10.90;16.20;;;;;;5016682;28;20272;-82
2024/01/03 03:10:54;;;;;;;16.33;1.07;;;10.90;14.50;;;;;;5034430;28;20530;-79
2024/01/03 03:13:19;;;;;;;23.53;1.90;;;10.90;11.80;;;;;;5034399;28;20185;-80
2024/01/03 03:15:46;;;;;;;16.83;1.00;;;10.80;14.30;;;;;;5034140;28;20674;-79
2024/01/03 03:18:12;;;;;;;18.80;1.10;;;10.80;19.00;;;;;;5034308;28;20162;-81
2024/01/03 03:20:38;;;;;;;16.35;1.17;;;10.80;27.30;;;;;;5033475;28;20189;-80
2024/01/03 03:23:04;;;;;;;16.23;1.63;;;10.80;36.20;;;;;;5016273;28;20692;-80
2024/01/03 03:25:29;;;;;;;16.70;1.20;;;10.70;49.30;;;;;;5016445;28;20173;-79
2024/01/03 03:27:55;;;;;;;22.93;1.77;;;10.60;58.80;;;;;;5016143;28;20172;-79
2024/01/03 03:30:21;;;;;;;17.73;1.23;;;10.60;68.60;;;;;;5034125;28;20211;-80
2024/01/03 03:32:47;;;;;;;19.53;1.23;;;10.50;81.80;;;;;;5034377;28;20166;-80
2024/01/03 03:35:13;;;;;;;18.83;1.65;;;10.50;87.40;;;;;;5034252;28;20162;-79
2024/01/03 03:37:40;;;;;;;19.48;1.50;;;10.50;91.00;;;;;;5033857;28;20248;-79
2024/01/03 03:40:07;;;;;;;19.35;1.23;;;10.40;92.60;;;;;;5034011;28;20166;-80
2024/01/03 03:42:33;;;;;;;16.67;1.23;;;10.40;94.20;;;;;;5033683;28;20243;-80
2024/01/03 03:44:59;;;;;;;25.40;2.00;;;10.40;97.10;;;;;;5033984;28;20170;-79
2024/01/03 03:47:25;;;;;;;22.20;1.87;;;10.50;95.80;;;;;;5033796;28;20421;-79
2024/01/03 03:49:50;;;;;;;17.63;1.50;;;10.50;94.70;;;;;;5034182;28;20166;-79
2024/01/03 03:52:16;;;;;;;17.53;1.33;;;10.60;93.70;;;;;;5034247;28;20162;-80
2024/01/03 03:54:42;;;;;;;22.57;2.20;;;10.60;91.60;;;;;;5034050;28;20173;-80
2024/01/03 03:57:07;;;;;;;16.77;1.47;;;10.60;88.50;;;;;;5033906;28;20181;-79
2024/01/03 03:59:33;;;;;;;20.30;1.30;;;10.60;91.10;;;;;;5034248;28;20212;-79
2024/01/03 04:01:59;;;;;;;18.77;1.37;;;10.60;86.10;;;;;;5015941;28;20228;-80
2024/01/03 04:04:24;;;;;;;17.07;1.37;;;10.60;84.60;;;;;;5033860;28;20478;-81
2024/01/03 04:06:56;;;;;;;19.83;1.77;;;10.60;84.30;;;;;;5034102;28;20185;-80
2024/01/03 04:09:24;;;;;;;19.95;2.60;;;10.60;86.50;;;;;;5016322;28;20534;-79
2024/01/03 04:11:50;;;;;;;17.20;1.40;;;10.60;91.70;;;;;;5033801;28;20166;-80
2024/01/03 04:14:15;;;;;;;18.00;1.40;;;10.50;93.00;;;;;;5033751;28;20635;-79
2024/01/03 04:16:41;;;;;;;20.27;1.70;;;10.60;92.30;;;;;;5015985;28;20186;-79
2024/01/03 04:19:06;;;;;;;19.70;2.20;;;10.60;93.30;;;;;;5015542;28;20174;-80
2024/01/03 04:21:33;;;;;;;19.20;1.63;;;10.50;94.40;;;;;;5033285;28;20531;-80
2024/01/03 04:23:59;;;;;;;25.58;1.50;;;10.50;96.70;;;;;;5033730;28;20186;-80
2024/01/03 04:26:26;;;;;;;19.77;1.40;;;10.50;98.00;;;;;;5015808;28;20678;-80
2024/01/03 04:28:52;;;;;;;18.00;1.42;;;10.30;99.90;;;;;;5033553;28;20220;-79
2024/01/03 04:31:18;;;;;;;22.47;2.20;;;10.30;99.90;;;;;;5035377;28;20162;-79
2024/01/03 04:33:44;;;;;;;17.60;1.30;;;10.40;99.90;;;;;;5037053;28;20268;-80
2024/01/03 04:36:13;;;;;;;23.60;1.73;;;10.40;99.90;;;;;;5036823;28;20261;-79
2024/01/03 04:38:39;;;;;;;20.88;1.90;;;10.30;99.90;;;;;;5019147;28;20193;-81
2024/01/03 04:41:04;;;;;;;20.23;1.90;;;10.30;99.60;;;;;;5037299;28;20190;-79
2024/01/03 04:43:30;;;;;;;19.20;1.80;;;10.40;96.00;;;;;;5036969;28;20166;-80
2024/01/03 04:45:59;;;;;;;20.57;2.27;;;10.50;94.30;;;;;;5018977;28;20186;-81
2024/01/03 04:48:24;;;;;;;21.20;1.63;;;10.50;91.80;;;;;;5036913;28;20171;-80
2024/01/03 04:50:50;;;;;;;18.17;1.67;;;10.50;92.50;;;;;;5036831;28;20178;-79
2024/01/03 04:53:16;;;;;;;23.03;1.70;;;10.60;91.10;;;;;;5036461;28;20170;-79
2024/01/03 04:55:41;;;;;;;21.03;1.63;;;10.60;91.50;;;;;;5018922;28;20197;-80
2024/01/03 04:58:07;;;;;;;19.30;1.97;;;10.50;92.70;;;;;;5036409;28;20223;-79
2024/01/03 05:00:34;;;;;;;21.20;1.83;;;10.50;93.30;;;;;;5018892;28;20250;-79
2024/01/03 05:03:00;;;;;;;18.25;2.05;;;10.60;90.00;;;;;;5018671;28;20192;-79
2024/01/03 05:05:26;;;;;;;17.67;1.30;;;10.70;80.50;;;;;;5036182;28;20178;-79
2024/01/03 05:07:51;;;;;;;20.17;1.57;;;10.70;78.60;;;;;;5036411;28;20198;-79
2024/01/03 05:10:17;;;;;;;16.37;1.10;;;10.80;72.60;;;;;;5036622;28;20173;-79
2024/01/03 05:12:42;;;;;;;19.23;1.50;;;10.80;75.80;;;;;;5035993;28;20165;-80
2024/01/03 05:15:09;;;;;;;24.93;2.07;;;10.80;77.10;;;;;;5036286;28;20686;-80
2024/01/03 05:17:34;;;;;;;20.02;1.98;;;10.80;77.50;;;;;;5036013;28;20273;-79
2024/01/03 05:20:00;;;;;;;17.70;1.40;;;10.80;81.80;;;;;;5036541;28;20197;-80
2024/01/03 05:22:26;;;;;;;27.20;1.83;;;10.80;86.90;;;;;;5036223;28;20190;-79
2024/01/03 05:24:53;;;;;;;20.30;2.50;;;10.80;87.50;;;;;;5035947;28;20245;-78
2024/01/03 05:27:20;;;;;;;23.35;2.28;;;10.80;85.90;;;;;;5036042;28;20265;-79
2024/01/03 05:29:46;;;;;;;23.08;1.65;;;10.80;88.40;;;;;;5036997;28;20215;-80
2024/01/03 05:32:12;;;;;;;22.03;2.30;;;10.80;87.20;;;;;;5035765;28;20591;-78
2024/01/03 05:34:37;;;;;;;23.43;2.80;;;10.80;86.00;;;;;;5017967;28;20408;-79
2024/01/03 05:37:03;;;;;;;23.20;1.63;;;10.90;83.00;;;;;;5035715;28;20186;-80
2024/01/03 05:39:29;;;;;;;22.47;2.20;;;10.90;80.00;;;;;;5036095;28;20634;-81
2024/01/03 05:41:55;;;;;;;20.80;2.80;;;10.90;76.90;;;;;;5035395;28;20445;-79
2024/01/03 05:44:20;;;;;;;18.90;2.10;;;10.90;71.10;;;;;;5035606;28;20532;-79
2024/01/03 05:46:46;;;;;;;19.63;1.60;;;10.90;69.10;;;;;;5035761;28;20550;-80
2024/01/03 05:49:11;;;;;;;19.17;2.63;;;10.90;66.60;;;;;;5035548;28;20533;-79
2024/01/03 05:51:37;;;;;;;19.00;1.77;;;11.00;66.10;;;;;;5017952;28;20677;-80
2024/01/03 05:54:03;;;;;;;21.90;2.97;;;10.90;60.40;;;;;;5017764;28;20176;-80
2024/01/03 05:56:28;;;;;;;21.33;1.60;;;10.90;56.00;;;;;;5035343;28;20675;-80
2024/01/03 05:58:54;;;;;;;24.40;2.33;;;11.00;53.20;;;;;;5035630;28;20162;-80
2024/01/03 06:01:20;;;;;;;25.43;3.10;;;10.90;57.10;;;;;;5017440;28;20198;-79
2024/01/03 06:03:47;;;;;;;24.20;3.40;;;10.90;55.10;;;;;;5035169;28;20201;-79
2024/01/03 06:06:12;;;;;;;23.55;3.15;;;10.90;56.20;;;;;;5035389;28;20208;-79
2024/01/03 06:08:38;;;;;;;22.97;2.13;;;10.90;53.50;;;;;;5017563;28;20170;-79
2024/01/03 06:11:04;;;;;;;20.47;2.80;;;11.00;48.00;;;;;;5034969;28;20499;-79
2024/01/03 06:13:29;;;;;;;26.30;3.80;;;11.00;51.40;;;;;;5035336;28;20166;-79
2024/01/03 06:15:55;;;;;;;19.40;2.37;;;11.00;39.70;;;;;;5035495;28;20190;-79
2024/01/03 06:18:24;;;;;;;22.43;2.60;;;11.00;37.20;;;;;;5035278;28;20224;-79
2024/01/03 06:20:49;;;;;;;20.42;2.30;;;11.00;39.50;;;;;;5034633;28;20288;-79
2024/01/03 06:23:15;;;;;;;21.73;2.80;;;11.00;34.90;;;;;;5017051;28;20254;-80
2024/01/03 06:25:40;;;;;;;21.87;2.27;;;11.00;34.90;;;;;;5034786;28;20224;-79
2024/01/03 06:28:06;;;;;;;18.70;2.10;;;11.00;27.30;;;;;;5034869;28;20631;-80
2024/01/03 06:30:32;;;;;;;19.50;2.30;;;11.00;27.60;;;;;;5017507;28;20162;-80
2024/01/03 06:32:57;;;;;;;20.90;1.90;;;11.00;21.80;;;;;;5034668;28;20639;-80
2024/01/03 06:35:23;;;;;;;21.43;2.20;;;11.00;22.60;;;;;;5034768;28;20162;-81
2024/01/03 06:37:49;;;;;;;21.00;2.63;;;11.00;22.20;;;;;;5034651;28;20185;-79
2024/01/03 06:40:14;;;;;;;18.50;1.73;;;11.00;24.30;;;;;;5034499;28;20581;-80
2024/01/03 06:42:40;;;;;;;21.00;2.23;;;11.10;20.10;;;;;;5034466;28;20221;-80
2024/01/03 06:45:06;;;;;;;20.27;1.80;;;11.10;21.20;;;;;;5034481;28;20166;-82
2024/01/03 06:47:32;;;;;;;20.67;2.00;;;11.10;23.30;;;;;;5034544;28;20504;-79
2024/01/03 06:49:58;;;;;;;21.20;1.63;;;11.10;31.30;;;;;;5034210;28;20258;-79
2024/01/03 06:52:24;;;;;;;20.63;1.60;;;11.10;43.40;;;;;;5034234;28;20853;-79
2024/01/03 06:54:50;;;;;;;22.27;1.77;;;11.10;44.50;;;;;;5015641;28;20541;-79
2024/01/03 06:57:16;;;;;;;24.38;2.30;;;11.10;40.50;;;;;;5034298;28;20251;-79
2024/01/03 06:59:42;;;;;;;20.90;2.10;;;11.10;37.00;;;;;;5034301;28;20162;-79
2024/01/03 07:02:08;;;;;;;25.60;2.10;;;11.20;37.90;;;;;;5034086;28;20198;-79
2024/01/03 07:04:34;;;;;;;17.48;1.20;;;11.10;37.80;;;;;;5016230;28;20188;-80
2024/01/03 07:06:59;;;;;;;20.07;2.60;;;11.10;39.40;;;;;;5033915;28;20186;-79
2024/01/03 07:09:25;;;;;;;25.20;2.03;;;11.10;37.10;;;;;;5016275;28;20166;-79
2024/01/03 07:11:53;;;;;;;18.53;1.90;;;11.10;36.80;;;;;;5016219;28;20409;-80
2024/01/03 07:14:18;;;;;;;18.50;1.70;;;11.10;36.10;;;;;;5033756;28;20166;-79
2024/01/03 07:16:44;;;;;;;17.50;1.60;;;11.10;33.00;;;;;;5034043;28;20240;-79
2024/01/03 07:19:11;;;;;;;24.57;2.10;;;11.00;34.90;;;;;;5034241;28;20150;-79
2024/01/03 07:21:37;;;;;;;18.70;1.20;;;11.10;30.00;;;;;;5015991;28;20190;-80
2024/01/03 07:24:02;;;;;;;20.58;1.90;;;11.10;26.90;;;;;;5033899;28;20166;-80
2024/01/03 07:26:28;;;;;;;19.77;1.63;;;11.10;33.30;;;;;;5034129;28;20182;-79
2024/01/03 07:28:54;;;;;;;21.93;2.00;;;11.20;38.70;;;;;;5034105;28;20166;-80
2024/01/03 07:31:19;;;;;;;24.23;2.50;;;11.10;52.10;;;;;;5033838;28;20162;-79
2024/01/03 07:33:45;;;;;;;17.60;1.00;;;11.10;56.70;;;;;;5033862;28;20590;-81
2024/01/03 07:36:11;;;;;;;19.27;1.57;;;11.10;53.80;;;;;;5033796;28;20182;-80
2024/01/03 07:38:36;;;;;;;18.00;1.43;;;11.00;56.80;;;;;;5033621;28;20615;-81
2024/01/03 07:41:02;;;;;;;16.40;0.80;;;11.00;50.30;;;;;;5034269;28;20635;-81
2024/01/03 07:43:28;;;;;;;20.40;1.10;;;11.00;50.60;;;;;;5033890;28;20623;-80
2024/01/03 07:45:55;;;;;;;18.58;2.03;;;10.90;58.90;;;;;;5016152;28;20197;-80
2024/01/03 07:48:21;;;;;;;26.33;1.40;;;10.80;66.20;;;;;;5034120;28;20198;-82
2024/01/03 07:50:46;;;;;;;19.10;1.10;;;10.80;75.10;;;;;;5033676;28;20197;-80
2024/01/03 07:53:12;;;;;;;17.90;1.40;;;10.80;85.00;;;;;;5016346;28;20181;-80
2024/01/03 07:55:38;;;;;;;19.60;1.30;;;10.70;92.00;;;;;;5034287;28;20190;-81
2024/01/03 07:58:04;;;;;;;17.30;1.23;;;10.60;97.30;;;;;;5034126;28;20276;-79
2024/01/03 08:00:30;;;;;;;23.40;2.07;;;10.60;99.90;;;;;;5033898;28;20166;-80
2024/01/03 08:02:56;;;;;;;16.98;1.52;;;10.60;99.40;;;;;;5033911;28;20158;-80
2024/01/03 08:05:22;;;;;;;17.85;1.13;;;10.60;94.70;;;;;;5033970;28;20177;-80
2024/01/03 08:07:48;;;;;;;27.70;1.77;;;10.80;90.30;;;;;;5037942;28;20572;-79
2024/01/03 08:10:14;;;;;;;19.67;1.40;;;10.80;73.30;;;;;;5019727;28;20193;-80
2024/01/03 08:12:40;;;;;;;19.00;1.37;;;10.80;67.70;;;;;;5037791;28;20182;-81
2024/01/03 08:15:07;;;;;;;20.85;1.50;;;10.80;57.90;;;;;;5037940;28;20228;-81
2024/01/03 08:17:32;;;;;;;18.40;1.40;;;10.80;54.90;;;;;;5037523;28;20765;-81
2024/01/03 08:19:58;;;;;;;19.13;1.87;;;10.80;52.70;;;;;;5037368;28;20170;-80
2024/01/03 08:22:24;;;;;;;20.17;1.77;;;10.80;53.20;;;;;;5037070;28;20789;-81
2024/01/03 08:24:49;;;;;;;22.90;1.87;;;10.80;54.40;;;;;;5037513;28;20177;-79
2024/01/03 08:27:17;;;;;;;17.93;1.70;;;10.90;46.40;;;;;;5037196;28;20193;-81
2024/01/03 08:29:43;;;;;;;18.35;1.88;;;10.80;46.60;;;;;;5037371;28;20170;-81
2024/01/03 08:32:09;;;;;;;16.83;1.55;;;10.90;46.60;;;;;;5037250;28;20253;-82
2024/01/03 08:34:34;;;;;;;20.00;1.70;;;10.90;47.30;;;;;;5019760;28;20212;-80
2024/01/03 08:37:00;;;;;;;26.67;2.07;;;10.90;47.10;;;;;;5019796;28;20186;-82
2024/01/03 08:39:26;;;;;;;18.40;1.63;;;10.90;49.30;;;;;;5037148;28;20169;-80
2024/01/03 08:41:54;;;;;;;17.10;1.20;;;10.90;46.30;;;;;;5037138;28;20599;-82
2024/01/03 08:44:20;;;;;;;16.50;1.10;;;10.80;42.00;;;;;;5038183;28;20169;-81
2024/01/03 08:46:46;;;;;;;16.42;1.70;;;10.80;48.80;;;;;;5036804;28;20190;-80
2024/01/03 08:49:12;;;;;;;16.70;1.03;;;10.70;81.50;;;;;;5037024;28;20214;-80
2024/01/03 08:51:39;;;;;;;18.63;1.20;;;10.60;77.00;;;;;;5036608;28;20178;-81
2024/01/03 08:54:04;;;;;;;18.67;1.17;;;10.50;90.00;;;;;;5036906;28;20169;-80
2024/01/03 08:56:31;;;;;;;16.27;1.13;;;10.30;91.50;;;;;;5019067;28;20198;-80
2024/01/03 08:58:56;;;;;;;17.00;1.00;;;10.20;96.70;;;;;;5036547;28;20549;-80
2024/01/03 09:01:23;;;;;;;26.13;1.40;;;10.30;99.90;;;;;;5036641;28;20190;-80
2024/01/03 09:03:50;;;;;;;23.00;1.30;;;10.20;99.90;;;;;;5037052;28;20185;-79
2024/01/03 09:06:20;;;;;;;17.08;1.02;;;10.10;99.90;;;;;;5037419;28;20550;-81
2024/01/03 09:08:54;;;;;;;20.38;1.20;;;10.10;99.90;;;;;;5019143;28;20249;-82
2024/01/03 09:11:25;;;;;;;19.75;1.38;;;10.20;99.90;;;;;;5036806;28;20146;-81
2024/01/03 09:13:51;;;;;;;20.00;1.40;;;10.10;99.90;;;;;;5036383;28;20190;-80
2024/01/03 09:16:26;;;;;;;19.52;1.92;;;10.20;99.90;;;;;;5036432;28;20208;-80
2024/01/03 09:18:52;;;;;;;19.10;1.63;;;10.20;99.90;;;;;;5017480;28;20166;-81
2024/01/03 09:21:18;;;;;;;20.20;1.45;;;10.20;99.90;;;;;;5036409;28;20197;-79
2024/01/03 09:23:44;;;;;;;17.80;1.33;;;10.20;99.90;;;;;;5036248;28;20256;-80
2024/01/03 09:26:10;;;;;;;18.00;1.40;;;10.20;99.90;;;;;;5036266;28;20434;-80
2024/01/03 09:28:37;;;;;;;23.25;2.50;;;10.20;99.90;;;;;;5036153;28;20212;-80
2024/01/03 09:31:03;;;;;;;18.95;1.83;;;10.20;99.90;;;;;;5036140;28;20170;-80
2024/01/03 09:33:29;;;;;;;20.85;1.50;;;10.20;99.90;;;;;;5036234;28;20255;-80
2024/01/03 09:35:55;;;;;;;22.10;1.53;;;10.30;99.90;;;;;;5036376;28;20209;-80
2024/01/03 09:38:20;;;;;;;21.43;1.73;;;10.30;99.90;;;;;;5036571;28;20220;-80
2024/01/03 09:40:47;;;;;;;21.23;1.83;;;10.30;99.90;;;;;;5035822;28;20208;-81
2024/01/03 09:43:13;;;;;;;29.95;2.72;;;10.40;99.90;;;;;;5037017;28;20184;-81
2024/01/03 09:45:39;;;;;;;19.50;1.60;;;10.50;99.90;;;;;;5019134;28;20276;-82
2024/01/03 09:48:06;;;;;;;20.00;2.20;;;10.60;99.90;;;;;;5036257;28;20310;-80
2024/01/03 09:50:32;;;;;;;27.83;1.80;;;10.70;99.90;;;;;;5036448;28;20648;-81
2024/01/03 09:52:58;;;;;;;20.37;1.67;;;10.80;94.70;;;;;;5036050;28;20151;-79
2024/01/03 09:55:24;;;;;;;19.13;1.67;;;10.90;92.50;;;;;;5035861;28;20734;-80
2024/01/03 09:57:50;;;;;;;21.17;1.90;;;11.00;70.50;;;;;;5036004;28;20170;-79
2024/01/03 10:00:16;;;;;;;23.85;2.22;;;11.10;67.60;;;;;;5035681;28;20161;-79
2024/01/03 10:02:47;;;;;;;21.48;2.00;;;11.20;57.70;;;;;;5018324;28;20764;-81
2024/01/03 10:05:20;;;;;;;17.88;2.10;;;11.30;58.50;;;;;;5036232;28;20186;-80
2024/01/03 10:07:46;;;;;;;20.75;2.30;;;11.30;55.70;;;;;;5018090;28;20551;-81
2024/01/03 10:10:15;;;;;;;24.90;2.03;;;11.30;49.20;;;;;;5036182;28;20348;-79
2024/01/03 10:12:40;;;;;;;22.85;1.73;;;11.30;51.90;;;;;;5036241;28;20169;-80
2024/01/03 10:15:19;;;;;;;24.40;2.63;;;11.40;49.10;;;;;;5018037;28;20221;-79
2024/01/03 10:17:46;;;;;;;20.55;2.42;;;11.40;45.50;;;;;;5036210;28;20257;-81
2024/01/03 10:20:28;;;;;;;25.27;2.72;;;11.60;45.50;;;;;;5035731;28;20508;-80
2024/01/03 10:23:29;;;;;;;24.05;2.20;;;11.60;36.90;;;;;;5035680;28;20193;-81
2024/01/03 10:25:57;;;;;;;21.35;1.65;;;11.60;32.30;;;;;;4937335;29;20193;-83
2024/01/03 10:28:22;;;;;;;21.45;2.08;;;11.60;36.40;;;;;;5003703;28;20178;-81
2024/01/03 10:30:52;;;;;;;19.33;2.13;;;11.60;26.90;;;;;;5036804;28;20216;-79
2024/01/03 10:33:18;;;;;;;20.52;1.67;;;11.60;32.40;;;;;;5036869;28;20154;-82
2024/01/03 10:35:44;;;;;;;17.30;1.60;;;11.60;35.60;;;;;;5018826;28;20185;-81
2024/01/03 10:38:10;;;;;;;21.90;1.60;;;11.70;32.70;;;;;;5018856;28;20170;-81
2024/01/03 10:40:39;;;;;;;18.63;1.90;;;11.60;36.60;;;;;;5036437;28;20189;-81
2024/01/03 10:43:08;;;;;;;17.70;1.88;;;11.60;44.10;;;;;;5036839;28;20595;-81
2024/01/03 10:45:34;;;;;;;21.80;1.90;;;11.50;53.00;;;;;;5036127;28;20142;-81
2024/01/03 10:48:00;;;;;;;23.03;2.20;;;11.50;53.70;;;;;;5035494;28;20199;-81
2024/01/03 10:50:26;;;;;;;20.90;1.80;;;11.50;58.10;;;;;;5017412;28;20587;-82
2024/01/03 10:52:56;;;;;;;22.60;2.10;;;11.60;57.00;;;;;;5017356;28;20176;-80
2024/01/03 10:55:37;;;;;;;21.05;1.95;;;11.70;41.30;;;;;;5035013;28;20411;-82
2024/01/03 10:58:13;;;;;;;21.85;2.80;;;11.70;35.40;;;;;;5035345;28;20158;-82
2024/01/03 11:01:19;;;;;;;18.67;1.92;;;11.70;33.00;;;;;;5035305;28;20567;-80
2024/01/03 11:04:08;;;;;;;19.35;2.45;;;11.70;29.70;;;;;;5035441;28;20611;-80
2024/01/03 11:06:38;;;;;;;19.48;2.22;;;11.60;29.30;;;;;;5039121;28;20186;-82
2024/01/03 11:09:04;;;;;;;25.48;2.05;;;11.70;35.90;;;;;;5039857;28;20170;-81
2024/01/03 11:11:33;;;;;;;18.00;1.47;;;11.70;21.70;;;;;;5038122;28;20298;-83
2024/01/03 11:14:21;;;;;;;20.08;2.25;;;11.70;17.40;;;;;;5019273;28;20172;-82
2024/01/03 11:16:47;;;;;;;18.60;1.67;;;11.70;19.70;;;;;;5036641;28;20524;-82
2024/01/03 11:19:13;;;;;;;18.05;1.50;;;11.70;19.90;;;;;;5036328;28;20150;-81
2024/01/03 11:21:44;;;;;;;23.70;1.60;;;11.70;24.00;;;;;;5036223;28;20250;-80
2024/01/03 11:24:19;;;;;;;19.73;1.70;;;11.70;26.80;;;;;;5036124;28;20388;-81
2024/01/03 11:26:53;;;;;;;21.33;2.25;;;11.60;30.90;;;;;;5035962;28;20542;-81
2024/01/03 11:29:48;;;;;;;18.55;1.38;;;11.60;35.80;;;;;;5035964;28;20169;-81
2024/01/03 11:32:29;;;;;;;18.08;1.88;;;11.60;37.30;;;;;;5035633;28;20153;-81
2024/01/03 11:34:55;;;;;;;18.27;1.80;;;11.50;38.40;;;;;;5035506;28;20712;-82
2024/01/03 11:37:24;;;;;;;16.02;1.27;;;11.50;44.40;;;;;;5036053;28;20295;-81
2024/01/03 11:39:52;;;;;;;22.42;1.88;;;11.50;43.50;;;;;;5035973;28;20146;-80
2024/01/03 11:42:38;;;;;;;20.35;2.00;;;11.50;50.00;;;;;;5021407;28;20209;-83
2024/01/03 11:45:13;;;;;;;21.38;3.05;;;11.30;60.40;;;;;;5040211;28;20142;-81
2024/01/03 11:47:40;;;;;;;21.50;2.05;;;11.50;53.60;;;;;;5039554;28;20184;-82
2024/01/03 11:50:08;;;;;;;18.83;1.95;;;11.50;54.20;;;;;;5021553;28;20154;-82
2024/01/03 11:52:38;;;;;;;18.35;2.08;;;11.60;45.80;;;;;;5039103;28;20162;-81
2024/01/03 11:55:12;;;;;;;19.75;1.77;;;11.60;29.50;;;;;;5039002;28;20240;-81
2024/01/03 11:57:42;;;;;;;17.23;1.73;;;11.60;26.40;;;;;;5039070;28;20189;-82
2024/01/03 12:00:15;;;;;;;22.05;2.08;;;11.60;26.70;;;;;;5039622;28;20158;-82
2024/01/03 12:02:57;;;;;;;18.05;1.80;;;11.60;25.90;;;;;;5039039;28;20185;-82
2024/01/03 12:05:24;;;;;;;20.25;2.35;;;11.80;29.50;;;;;;5038581;28;20681;-81
2024/01/03 12:07:52;;;;;;;19.33;1.98;;;11.90;20.60;;;;;;5038805;28;20201;-82
2024/01/03 12:10:18;;;;;;;21.60;1.77;;;12.00;19.20;;;;;;5038619;28;20186;-82
2024/01/03 12:12:48;;;;;;;20.95;2.10;;;12.00;11.90;;;;;;5038556;28;20173;-82
2024/01/03 12:15:25;;;;;;;23.17;2.08;;;12.00;5.10;;;;;;5038788;28;20165;-82
2024/01/03 12:17:51;;;;;;;18.92;2.00;;;12.00;5.90;;;;;;5039071;28;20142;-83
2024/01/03 12:20:19;;;;;;;21.13;2.10;;;12.00;1.00;;;;;;5038250;28;20165;-82
2024/01/03 12:22:44;;;;;;;18.45;1.63;;;12.00;1.90;;;;;;5038762;28;20185;-81
2024/01/03 12:25:20;;;;;;;21.20;1.90;;;12.10;1.00;;;;;;5021184;28;20185;-82
2024/01/03 12:27:45;;;;;;;17.40;1.70;;;12.00;1.00;;;;;;5038237;28;20162;-82
2024/01/03 12:30:13;;;;;;;20.00;2.57;;;12.00;1.00;;;;;;5038536;28;20563;-83
2024/01/03 12:32:39;;;;;;;29.77;3.78;;;12.00;1.00;;;;;;5038488;28;20220;-81
2024/01/03 12:35:05;;;;;;;30.90;4.00;;;12.00;1.00;;;;;;5020610;28;20606;-81
2024/01/03 12:37:30;;;;;;;26.07;2.40;;;12.00;1.00;;;;;;5038038;28;20432;-81
2024/01/03 12:39:57;;;;;;;19.60;1.63;;;12.00;1.00;;;;;;5038454;28;20940;-82